Time;durP1;ratioP1;P1;durP2;ratioP2;P2;SDS_P1;SDS_P2;PMS_P1;PMS_P2;Temp;Humidity;BMP_temperature;BMP_pressure;BME280_temperature;BME280_humidity;BME280_pressure;Samples;Min_cycle;Max_cycle;Signal;HPM_P1;HPM_P2
2021/06/07 00:01:55;0.00;0.00;0.62;0.00;0.00;0.62;8.30;7.50;;;27.70;35.40;;;;;;2270253;61;20621;-66
2021/06/07 00:04:39;0.00;0.00;0.62;0.00;0.00;0.62;8.17;7.50;;;27.70;35.40;;;;;;2270198;61;20419;-67
2021/06/07 00:07:25;0.00;0.00;0.62;0.00;0.00;0.62;8.17;7.33;;;27.60;35.30;;;;;;2270148;61;20399;-68
2021/06/07 00:10:13;0.00;0.00;0.62;0.00;0.00;0.62;8.30;7.03;;;27.60;35.40;;;;;;2270043;61;20360;-69
2021/06/07 00:12:58;0.00;0.00;0.62;0.00;0.00;0.62;8.13;7.33;;;27.60;35.40;;;;;;2270205;61;20402;-69
2021/06/07 00:15:43;0.00;0.00;0.62;0.00;0.00;0.62;8.07;7.43;;;27.60;35.30;;;;;;2270432;61;20678;-67
2021/06/07 00:18:28;0.00;0.00;0.62;0.00;0.00;0.62;8.33;7.53;;;27.60;35.30;;;;;;2272341;61;20414;-69
2021/06/07 00:21:16;0.00;0.00;0.62;0.00;0.00;0.62;8.97;8.17;;;27.50;35.20;;;;;;2269995;61;20579;-69
2021/06/07 00:24:05;0.00;0.00;0.62;0.00;0.00;0.62;9.20;7.70;;;27.50;35.10;;;;;;2270388;61;20357;-68
2021/06/07 00:26:50;0.00;0.00;0.62;0.00;0.00;0.62;8.63;7.83;;;27.50;35.00;;;;;;2270072;61;20604;-68
2021/06/07 00:29:35;0.00;0.00;0.62;0.00;0.00;0.62;8.70;8.00;;;27.50;35.00;;;;;;2269719;61;20364;-68
2021/06/07 00:32:20;0.00;0.00;0.62;0.00;0.00;0.62;9.13;8.33;;;27.50;35.00;;;;;;2270084;61;20528;-69
2021/06/07 00:35:06;0.00;0.00;0.62;0.00;0.00;0.62;8.87;8.07;;;27.40;35.00;;;;;;2270060;61;20360;-69
2021/06/07 00:37:51;0.00;0.00;0.62;0.00;0.00;0.62;9.53;8.73;;;27.40;35.00;;;;;;2270328;61;20356;-68
2021/06/07 00:40:38;0.00;0.00;0.62;0.00;0.00;0.62;9.80;8.83;;;27.40;34.80;;;;;;2269870;61;20462;-68
2021/06/07 00:43:23;0.00;0.00;0.62;0.00;0.00;0.62;9.83;9.00;;;27.40;34.80;;;;;;2269974;61;20743;-68
2021/06/07 00:46:07;0.00;0.00;0.62;0.00;0.00;0.62;9.87;8.90;;;27.40;34.90;;;;;;2270310;61;20377;-68
2021/06/07 00:48:54;0.00;0.00;0.62;0.00;0.00;0.62;9.90;9.00;;;27.30;34.80;;;;;;2269911;61;20562;-68
2021/06/07 00:51:41;0.00;0.00;0.62;0.00;0.00;0.62;9.37;8.47;;;27.30;34.80;;;;;;2269946;61;20427;-68
2021/06/07 00:54:26;0.00;0.00;0.62;0.00;0.00;0.62;8.93;8.03;;;27.30;34.70;;;;;;2270058;61;20480;-69
2021/06/07 00:57:12;0.00;0.00;0.62;0.00;0.00;0.62;10.30;9.33;;;27.20;34.70;;;;;;2269928;61;20359;-69
2021/06/07 00:59:56;0.00;0.00;0.62;0.00;0.00;0.62;8.00;7.30;;;27.20;34.70;;;;;;2270140;61;20585;-69
2021/06/07 01:02:40;0.00;0.00;0.62;0.00;0.00;0.62;7.63;7.03;;;27.20;34.70;;;;;;2269935;61;20656;-68
2021/06/07 01:05:27;0.00;0.00;0.62;0.00;0.00;0.62;8.07;7.30;;;27.20;35.50;;;;;;2269956;61;20809;-68
2021/06/07 01:08:11;0.00;0.00;0.62;0.00;0.00;0.62;8.13;7.43;;;27.20;34.80;;;;;;2270311;61;20360;-68
2021/06/07 01:10:56;0.00;0.00;0.62;0.00;0.00;0.62;8.27;7.43;;;27.20;34.70;;;;;;2269625;61;20368;-68
2021/06/07 01:13:44;0.00;0.00;0.62;0.00;0.00;0.62;7.00;6.40;;;27.10;34.60;;;;;;2269979;61;20472;-68
2021/06/07 01:16:29;0.00;0.00;0.62;0.00;0.00;0.62;6.87;6.37;;;27.10;34.60;;;;;;2270010;61;20371;-68
2021/06/07 01:19:16;0.00;0.00;0.62;0.00;0.00;0.62;8.00;7.20;;;27.10;34.60;;;;;;2269876;61;20364;-69
2021/06/07 01:22:04;0.00;0.00;0.62;0.00;0.00;0.62;7.70;7.00;;;27.10;34.60;;;;;;2269826;61;20376;-67
2021/06/07 01:24:49;0.00;0.00;0.62;0.00;0.00;0.62;7.20;6.57;;;27.00;34.50;;;;;;2269946;61;20356;-67
2021/06/07 01:27:34;0.00;0.00;0.62;0.00;0.00;0.62;6.83;6.20;;;27.00;34.50;;;;;;2269987;61;20388;-69
2021/06/07 01:30:25;0.00;0.00;0.62;0.00;0.00;0.62;7.37;6.67;;;27.00;34.50;;;;;;2269965;61;20361;-69
2021/06/07 01:33:13;0.00;0.00;0.62;0.00;0.00;0.62;7.50;7.00;;;27.00;34.50;;;;;;2269324;61;20855;-69
2021/06/07 01:36:01;0.00;0.00;0.62;0.00;0.00;0.62;7.50;6.90;;;27.00;34.50;;;;;;2269964;61;20451;-67
2021/06/07 01:38:48;0.00;0.00;0.62;0.00;0.00;0.62;6.60;6.10;;;27.00;34.50;;;;;;2269856;61;20392;-68
2021/06/07 01:41:33;0.00;0.00;0.62;0.00;0.00;0.62;6.53;5.93;;;27.00;34.50;;;;;;2269701;61;20376;-68
2021/06/07 01:44:17;0.00;0.00;0.62;0.00;0.00;0.62;6.23;5.73;;;27.00;35.20;;;;;;2272312;61;20720;-68
2021/06/07 01:47:02;0.00;0.00;0.62;0.00;0.00;0.62;7.83;6.03;;;26.90;34.60;;;;;;2269433;61;20452;-68
2021/06/07 01:49:47;0.00;0.00;0.62;0.00;0.00;0.62;6.97;6.27;;;26.90;34.60;;;;;;2269853;61;20418;-69
2021/06/07 01:52:33;0.00;0.00;0.62;0.00;0.00;0.62;8.57;7.80;;;26.90;34.60;;;;;;2270043;61;20385;-68
2021/06/07 01:55:21;0.00;0.00;0.62;0.00;0.00;0.62;8.43;7.10;;;26.90;34.50;;;;;;2269593;61;20356;-69
2021/06/07 01:58:09;0.00;0.00;0.62;0.00;0.00;0.62;8.07;7.37;;;26.90;34.40;;;;;;2269997;61;20360;-69
2021/06/07 02:00:57;0.00;0.00;0.62;0.00;0.00;0.62;8.67;7.87;;;26.90;34.40;;;;;;2269298;61;20394;-69
2021/06/07 02:03:42;0.00;0.00;0.62;0.00;0.00;0.62;8.30;7.50;;;26.80;34.30;;;;;;2269776;61;20383;-69
2021/06/07 02:06:27;0.00;0.00;0.62;0.00;0.00;0.62;8.23;7.43;;;26.80;34.30;;;;;;2269789;61;20438;-68
2021/06/07 02:09:12;0.00;0.00;0.62;0.00;0.00;0.62;7.90;7.20;;;26.80;34.30;;;;;;2269888;61;20360;-69
2021/06/07 02:11:58;0.00;0.00;0.62;0.00;0.00;0.62;7.97;7.20;;;26.80;34.30;;;;;;2269248;61;20387;-69
2021/06/07 02:14:42;0.00;0.00;0.62;0.00;0.00;0.62;8.43;7.73;;;26.80;34.30;;;;;;2269891;61;20419;-69
2021/06/07 02:17:27;0.00;0.00;0.62;0.00;0.00;0.62;7.30;6.70;;;26.70;34.30;;;;;;2269624;61;20615;-69
2021/06/07 02:20:15;0.00;0.00;0.62;0.00;0.00;0.62;7.93;7.23;;;26.70;34.30;;;;;;2269630;61;20386;-69
2021/06/07 02:23:00;0.00;0.00;0.62;0.00;0.00;0.62;7.70;6.67;;;26.70;34.40;;;;;;2269687;61;20778;-68
2021/06/07 02:25:44;0.00;0.00;0.62;0.00;0.00;0.62;7.93;7.13;;;26.70;34.40;;;;;;2269771;61;20418;-68
2021/06/07 02:28:30;0.00;0.00;0.62;0.00;0.00;0.62;8.30;7.50;;;26.70;34.40;;;;;;2269772;61;20384;-69
2021/06/07 02:31:17;0.00;0.00;0.62;0.00;0.00;0.62;8.80;7.87;;;26.70;34.50;;;;;;2269579;61;20396;-68
2021/06/07 02:34:05;0.00;0.00;0.62;0.00;0.00;0.62;8.60;7.90;;;26.70;34.50;;;;;;2269695;61;20546;-70
2021/06/07 02:36:50;0.00;0.00;0.62;0.00;0.00;0.62;9.83;8.83;;;26.70;34.40;;;;;;2269883;61;20348;-69
2021/06/07 02:39:35;0.00;0.00;0.62;0.00;0.00;0.62;9.03;8.23;;;26.60;34.40;;;;;;2269106;61;20399;-69
2021/06/07 02:42:19;0.00;0.00;0.62;0.00;0.00;0.62;8.80;8.03;;;26.60;34.40;;;;;;2269536;61;20380;-69
2021/06/07 02:45:09;0.00;0.00;0.62;0.00;0.00;0.62;10.30;9.30;;;26.60;34.50;;;;;;2269815;61;20416;-67
2021/06/07 02:47:56;0.00;0.00;0.62;0.00;0.00;0.62;7.57;6.87;;;26.60;34.40;;;;;;2269729;61;20356;-69
2021/06/07 02:50:45;0.00;0.00;0.62;0.00;0.00;0.62;8.20;7.50;;;26.60;34.50;;;;;;2269519;61;20371;-66
2021/06/07 02:53:31;0.00;0.00;0.62;0.00;0.00;0.62;8.70;7.90;;;26.60;34.50;;;;;;2269466;61;20373;-68
2021/06/07 02:56:16;0.00;0.00;0.62;0.00;0.00;0.62;8.30;7.60;;;26.50;34.40;;;;;;2269644;61;20394;-68
2021/06/07 02:59:03;0.00;0.00;0.62;0.00;0.00;0.62;8.30;7.50;;;26.60;34.50;;;;;;2269884;61;20387;-69
2021/06/07 03:01:49;0.00;0.00;0.62;0.00;0.00;0.62;8.73;7.87;;;26.50;34.50;;;;;;2269569;61;20379;-69
2021/06/07 03:04:33;0.00;0.00;0.62;0.00;0.00;0.62;8.30;7.50;;;26.50;34.50;;;;;;2269614;61;20475;-69
2021/06/07 03:07:18;0.00;0.00;0.62;0.00;0.00;0.62;7.83;7.07;;;26.50;34.60;;;;;;2269727;61;20371;-69
2021/06/07 03:10:04;0.00;0.00;0.62;0.00;0.00;0.62;8.67;7.87;;;26.50;34.60;;;;;;2269615;61;20367;-69
2021/06/07 03:12:49;0.00;0.00;0.62;0.00;0.00;0.62;9.07;8.17;;;26.50;34.60;;;;;;2269616;61;20373;-67
2021/06/07 03:15:34;0.00;0.00;0.62;0.00;0.00;0.62;8.70;7.90;;;26.50;34.70;;;;;;2269745;61;20395;-67
2021/06/07 03:18:21;0.00;0.00;0.62;0.00;0.00;0.62;8.00;7.30;;;26.50;34.60;;;;;;2269319;61;20394;-67
2021/06/07 03:21:06;0.00;0.00;0.62;0.00;0.00;0.62;9.10;8.23;;;26.50;34.60;;;;;;2269709;61;20364;-67
2021/06/07 03:23:51;0.00;0.00;0.62;0.00;0.00;0.62;8.90;8.00;;;26.40;34.60;;;;;;2269507;61;20352;-68
2021/06/07 03:26:35;0.00;0.00;0.62;0.00;0.00;0.62;10.23;7.70;;;26.50;34.70;;;;;;2269772;61;20748;-68
2021/06/07 03:29:20;0.00;0.00;0.62;0.00;0.00;0.62;9.00;8.20;;;26.40;34.50;;;;;;2270417;61;20468;-67
2021/06/07 03:32:05;0.00;0.00;0.62;0.00;0.00;0.62;9.50;8.60;;;26.40;34.60;;;;;;2270147;61;20383;-67
2021/06/07 03:34:52;0.00;0.00;0.62;0.00;0.00;0.62;8.83;8.03;;;26.40;34.50;;;;;;2270274;61;20359;-69
2021/06/07 03:37:37;0.00;0.00;0.62;0.00;0.00;0.62;9.30;8.47;;;26.40;34.50;;;;;;2270276;61;20434;-69
2021/06/07 03:40:26;0.00;0.00;0.62;0.00;0.00;0.62;9.40;8.50;;;26.40;34.60;;;;;;2269971;61;20433;-67
2021/06/07 03:43:11;0.00;0.00;0.62;0.00;0.00;0.62;8.10;7.40;;;26.40;34.60;;;;;;2270419;61;20657;-67
2021/06/07 03:45:56;0.00;0.00;0.62;0.00;0.00;0.62;8.27;7.57;;;26.30;34.60;;;;;;2270005;61;20368;-67
2021/06/07 03:48:41;0.00;0.00;0.62;0.00;0.00;0.62;9.73;8.60;;;26.30;34.60;;;;;;2269807;61;20411;-67
2021/06/07 03:51:27;0.00;0.00;0.62;0.00;0.00;0.62;8.10;7.30;;;26.30;34.60;;;;;;2270389;61;20368;-67
2021/06/07 03:54:11;0.00;0.00;0.62;0.00;0.00;0.62;8.97;8.10;;;26.40;34.70;;;;;;2270103;61;20459;-67
2021/06/07 03:56:55;0.00;0.00;0.62;0.00;0.00;0.62;8.57;7.87;;;26.30;34.60;;;;;;2270135;61;20607;-68
2021/06/07 03:59:40;0.00;0.00;0.62;0.00;0.00;0.62;8.40;7.60;;;26.30;34.70;;;;;;2270262;61;20368;-66
2021/06/07 04:02:25;0.00;0.00;0.62;0.00;0.00;0.62;8.73;7.93;;;26.30;34.70;;;;;;2269907;61;20399;-67
2021/06/07 04:05:12;0.00;0.00;0.62;0.00;0.00;0.62;8.77;7.90;;;26.30;34.70;;;;;;2270500;61;20435;-66
2021/06/07 04:08:00;0.00;0.00;0.62;0.00;0.00;0.62;8.27;7.57;;;26.30;34.70;;;;;;2269776;61;20352;-66
2021/06/07 04:10:46;0.00;0.00;0.62;0.00;0.00;0.62;9.43;8.63;;;26.30;34.70;;;;;;2269937;61;20247;-70
2021/06/07 04:13:31;0.00;0.00;0.62;0.00;0.00;0.62;10.07;9.27;;;26.30;34.70;;;;;;2270412;61;20778;-69
2021/06/07 04:16:16;0.00;0.00;0.62;0.00;0.00;0.62;10.33;9.43;;;26.30;34.60;;;;;;2270110;61;20365;-67
2021/06/07 04:19:00;0.00;0.00;0.62;0.00;0.00;0.62;9.10;8.20;;;26.30;34.60;;;;;;2270102;61;20356;-69
2021/06/07 04:21:44;0.00;0.00;0.62;0.00;0.00;0.62;9.20;8.20;;;26.30;34.60;;;;;;2270029;61;20426;-68
2021/06/07 04:24:30;0.00;0.00;0.62;0.00;0.00;0.62;8.70;7.97;;;26.20;34.50;;;;;;2270105;61;20463;-67
2021/06/07 04:27:16;0.00;0.00;0.62;0.00;0.00;0.62;9.17;8.37;;;26.20;34.50;;;;;;2270348;61;20380;-67
2021/06/07 04:30:05;0.00;0.00;0.62;0.00;0.00;0.62;8.70;7.87;;;26.20;34.60;;;;;;2269907;61;20491;-67
2021/06/07 04:32:52;0.00;0.00;0.62;0.00;0.00;0.62;8.57;7.87;;;26.20;34.70;;;;;;2270237;61;20375;-67
2021/06/07 04:35:37;0.00;0.00;0.62;0.00;0.00;0.62;10.37;9.37;;;26.20;34.80;;;;;;2270316;61;20356;-66
2021/06/07 04:38:22;0.00;0.00;0.62;0.00;0.00;0.62;10.97;9.70;;;26.20;34.80;;;;;;2269931;61;20360;-67
2021/06/07 04:41:08;0.00;0.00;0.62;0.00;0.00;0.62;10.17;9.27;;;26.20;34.70;;;;;;2269937;61;20581;-67
2021/06/07 04:43:53;0.00;0.00;0.62;0.00;0.00;0.62;10.10;9.17;;;26.10;34.70;;;;;;2270115;61;20491;-66
2021/06/07 04:46:37;0.00;0.00;0.62;0.00;0.00;0.62;9.33;8.53;;;26.10;34.70;;;;;;2269992;61;20387;-69
2021/06/07 04:49:21;0.00;0.00;0.62;0.00;0.00;0.62;11.17;10.17;;;26.10;34.70;;;;;;2270135;61;20400;-66
2021/06/07 04:52:07;0.00;0.00;0.62;0.00;0.00;0.62;12.90;11.70;;;26.10;34.70;;;;;;2270009;61;20395;-66
2021/06/07 04:54:51;0.00;0.00;0.62;0.00;0.00;0.62;12.93;11.57;;;26.00;34.60;;;;;;2270117;61;20616;-69
2021/06/07 04:57:37;0.00;0.00;0.62;0.00;0.00;0.62;13.30;12.00;;;26.00;34.50;;;;;;2270204;61;20387;-66
2021/06/07 05:00:23;0.00;0.00;0.62;0.00;0.00;0.62;11.63;10.63;;;26.00;34.60;;;;;;2269702;61;20709;-65
2021/06/07 05:03:09;0.00;0.00;0.62;0.00;0.00;0.62;13.50;12.20;;;25.80;34.60;;;;;;2269956;61;20438;-67
2021/06/07 05:05:54;0.00;0.00;0.62;0.00;0.00;0.62;11.67;10.57;;;25.80;34.70;;;;;;2270036;61;20426;-65
2021/06/07 05:08:39;0.00;0.00;0.62;0.00;0.00;0.62;11.80;10.70;;;25.80;34.80;;;;;;2270052;61;20365;-67
2021/06/07 05:11:23;0.00;0.00;0.62;0.00;0.00;0.62;11.50;10.50;;;25.70;34.90;;;;;;2269791;61;20363;-65
2021/06/07 05:14:09;0.00;0.00;0.62;0.00;0.00;0.62;12.67;11.43;;;25.70;35.00;;;;;;2270074;61;20360;-66
2021/06/07 05:16:54;0.00;0.00;0.62;0.00;0.00;0.62;12.80;11.70;;;25.70;35.00;;;;;;2269920;61;20674;-67
2021/06/07 05:19:38;0.00;0.00;0.62;0.00;0.00;0.62;14.80;13.40;;;25.70;35.00;;;;;;2270214;61;20372;-67
2021/06/07 05:22:23;0.00;0.00;0.62;0.00;0.00;0.62;14.70;12.73;;;25.70;35.00;;;;;;2269352;61;20379;-64
2021/06/07 05:25:10;0.00;0.00;0.62;0.00;0.00;0.62;16.90;12.67;;;25.60;35.00;;;;;;2270090;61;20367;-70
2021/06/07 05:27:56;0.00;0.00;0.62;0.00;0.00;0.62;14.53;13.23;;;25.60;35.00;;;;;;2269964;61;20440;-67
2021/06/07 05:30:45;0.00;0.00;0.62;0.00;0.00;0.62;13.20;10.40;;;25.50;35.00;;;;;;2269787;61;20388;-65
2021/06/07 05:33:30;0.00;0.00;0.62;0.00;0.00;0.62;13.20;11.80;;;25.50;35.10;;;;;;2269863;61;20736;-66
2021/06/07 05:36:14;0.00;0.00;0.62;0.00;0.00;0.62;13.80;12.50;;;25.50;35.20;;;;;;2269934;61;20352;-69
2021/06/07 05:38:59;0.00;0.00;0.62;0.00;0.00;0.62;13.90;12.60;;;25.50;35.30;;;;;;2269827;61;20367;-68
2021/06/07 05:41:43;0.00;0.00;0.62;0.00;0.00;0.62;15.07;13.57;;;25.50;35.30;;;;;;2269863;61;20427;-67
2021/06/07 05:44:28;0.00;0.00;0.62;0.00;0.00;0.62;15.53;11.80;;;25.40;35.20;;;;;;2269623;61;20467;-69
2021/06/07 05:47:14;0.00;0.00;0.62;0.00;0.00;0.62;11.67;10.47;;;25.40;35.30;;;;;;2269836;61;20666;-69
2021/06/07 05:49:58;0.00;0.00;0.62;0.00;0.00;0.62;9.90;8.90;;;25.40;35.40;;;;;;2271924;61;20478;-69
2021/06/07 05:52:46;0.00;0.00;0.62;0.00;0.00;0.62;14.20;12.80;;;25.30;35.40;;;;;;2269817;61;20764;-68
2021/06/07 05:55:35;0.00;0.00;0.62;0.00;0.00;0.62;12.17;11.17;;;25.30;35.40;;;;;;2269856;61;20356;-71
2021/06/07 05:58:23;0.00;0.00;0.62;0.00;0.00;0.62;11.90;10.73;;;25.30;35.50;;;;;;2269978;61;20433;-68
2021/06/07 06:01:08;0.00;0.00;0.62;0.00;0.00;0.62;13.23;11.93;;;25.30;35.50;;;;;;2269412;61;20464;-69
2021/06/07 06:03:53;0.00;0.00;0.62;0.00;0.00;0.62;11.13;9.93;;;25.30;35.50;;;;;;2270031;61;20356;-71
2021/06/07 06:06:38;0.00;0.00;0.62;0.00;0.00;0.62;10.40;9.50;;;25.30;35.60;;;;;;2269575;61;20379;-69
2021/06/07 06:09:22;0.00;0.00;0.62;0.00;0.00;0.62;12.90;11.50;;;25.30;35.70;;;;;;2269781;61;20414;-70
2021/06/07 06:12:08;0.00;0.00;0.62;0.00;0.00;0.62;10.20;9.20;;;25.20;35.60;;;;;;2269664;61;20392;-70
2021/06/07 06:14:53;0.00;0.00;0.62;0.00;0.00;0.62;9.97;9.10;;;25.20;35.60;;;;;;2269774;61;20363;-70
2021/06/07 06:17:38;0.00;0.00;0.62;0.00;0.00;0.62;8.37;7.57;;;25.20;35.60;;;;;;2269866;61;20359;-68
2021/06/07 06:20:30;0.00;0.00;0.62;0.00;0.00;0.62;8.30;7.60;;;25.20;35.60;;;;;;2269735;61;20443;-67
2021/06/07 06:23:14;0.00;0.00;0.62;0.00;0.00;0.62;9.20;8.40;;;25.30;35.60;;;;;;2269102;61;20405;-68
2021/06/07 06:26:01;0.00;0.00;0.62;0.00;0.00;0.62;10.47;8.80;;;25.30;35.60;;;;;;2269959;61;20422;-68
2021/06/07 06:28:46;0.00;0.00;0.62;0.00;0.00;0.62;15.63;7.97;;;25.30;35.60;;;;;;2269505;61;20585;-67
2021/06/07 06:31:30;0.00;0.00;0.62;0.00;0.00;0.62;8.80;7.97;;;25.30;35.60;;;;;;2269540;61;20383;-68
2021/06/07 06:34:15;0.00;0.00;0.62;0.00;0.00;0.62;9.37;8.53;;;25.40;35.70;;;;;;2270216;61;20394;-69
2021/06/07 06:37:01;0.00;0.00;0.62;0.00;0.00;0.62;9.10;8.40;;;25.30;35.60;;;;;;2269315;61;20356;-69
2021/06/07 06:39:46;0.00;0.00;0.62;0.00;0.00;0.62;8.43;6.83;;;25.40;35.60;;;;;;2269615;61;20363;-69
2021/06/07 06:42:30;0.00;0.00;0.62;0.00;0.00;0.62;9.07;8.37;;;25.40;35.60;;;;;;2269681;61;20407;-69
2021/06/07 06:45:16;0.00;0.00;0.62;0.00;0.00;0.62;9.23;8.43;;;25.40;35.60;;;;;;2269748;61;20433;-69
2021/06/07 06:48:00;0.00;0.00;0.62;0.00;0.00;0.62;9.23;8.43;;;25.40;35.60;;;;;;2269903;61;20618;-68
2021/06/07 06:50:46;0.00;0.00;0.62;0.00;0.00;0.62;8.83;8.13;;;25.40;35.50;;;;;;2269276;61;20653;-69
2021/06/07 06:53:32;0.00;0.00;0.62;0.00;0.00;0.62;10.03;9.00;;;25.50;35.60;;;;;;2269644;61;20376;-69
2021/06/07 06:56:17;0.00;0.00;0.62;0.00;0.00;0.62;9.17;8.40;;;25.50;35.50;;;;;;2270003;61;20703;-70
2021/06/07 06:59:02;0.00;0.00;0.62;0.00;0.00;0.62;9.17;8.47;;;25.50;35.50;;;;;;2269605;61;20463;-69
2021/06/07 07:01:47;0.00;0.00;0.62;0.00;0.00;0.62;8.83;8.03;;;25.50;35.50;;;;;;2269689;61;20379;-69
2021/06/07 07:04:31;0.00;0.00;0.62;0.00;0.00;0.62;9.03;8.23;;;25.50;35.50;;;;;;2270474;61;20363;-69
2021/06/07 07:07:16;0.00;0.00;0.62;0.00;0.00;0.62;9.03;8.23;;;25.50;35.40;;;;;;2270320;61;20383;-69
2021/06/07 07:10:02;0.00;0.00;0.62;0.00;0.00;0.62;9.27;8.47;;;25.50;36.10;;;;;;2272854;61;20359;-69
2021/06/07 07:12:48;0.00;0.00;0.62;0.00;0.00;0.62;8.20;7.50;;;25.60;35.50;;;;;;2270302;61;20442;-69
2021/06/07 07:15:32;0.00;0.00;0.62;0.00;0.00;0.62;9.63;8.83;;;25.60;35.50;;;;;;2270400;61;20382;-68
2021/06/07 07:18:17;0.00;0.00;0.62;0.00;0.00;0.62;7.60;7.00;;;25.60;35.40;;;;;;2270507;61;20372;-71
2021/06/07 07:21:03;0.00;0.00;0.62;0.00;0.00;0.62;8.80;7.77;;;25.60;35.40;;;;;;2270012;61;20364;-68
2021/06/07 07:23:48;0.00;0.00;0.62;0.00;0.00;0.62;8.57;7.77;;;25.60;35.40;;;;;;2270368;61;20356;-68
2021/06/07 07:26:34;0.00;0.00;0.62;0.00;0.00;0.62;7.97;7.30;;;25.70;35.40;;;;;;2270257;61;20406;-68
2021/06/07 07:29:18;0.00;0.00;0.62;0.00;0.00;0.62;8.27;7.53;;;25.70;35.40;;;;;;2270307;61;20361;-68
2021/06/07 07:32:05;0.00;0.00;0.62;0.00;0.00;0.62;8.03;7.40;;;25.70;35.40;;;;;;2270186;61;20422;-69
2021/06/07 07:34:50;0.00;0.00;0.62;0.00;0.00;0.62;8.40;7.70;;;25.70;35.40;;;;;;2270252;61;20364;-69
2021/06/07 07:37:35;0.00;0.00;0.62;0.00;0.00;0.62;6.93;6.23;;;25.70;35.40;;;;;;2270302;61;20432;-69
2021/06/07 07:40:23;0.00;0.00;0.62;0.00;0.00;0.62;8.50;7.80;;;25.70;35.40;;;;;;2270427;61;20723;-70
2021/06/07 07:43:09;0.00;0.00;0.62;0.00;0.00;0.62;8.27;7.57;;;25.70;35.30;;;;;;2270152;61;20451;-70
2021/06/07 07:45:54;0.00;0.00;0.62;0.00;0.00;0.62;9.00;8.30;;;25.80;35.40;;;;;;2270325;61;20355;-70
2021/06/07 07:48:39;0.00;0.00;0.62;0.00;0.00;0.62;9.00;8.30;;;25.80;35.40;;;;;;2270266;61;20411;-70
2021/06/07 07:51:24;0.00;0.00;0.62;0.00;0.00;0.62;8.30;7.60;;;25.80;35.30;;;;;;2270049;61;20410;-67
2021/06/07 07:54:09;0.00;0.00;0.62;0.00;0.00;0.62;8.80;8.07;;;25.80;35.30;;;;;;2270301;61;20368;-67
2021/06/07 07:56:54;0.00;0.00;0.62;0.00;0.00;0.62;8.57;7.77;;;25.80;35.30;;;;;;2270162;61;20717;-70
2021/06/07 07:59:40;0.00;0.00;0.62;0.00;0.00;0.62;8.60;7.90;;;25.80;35.20;;;;;;2269646;61;20759;-69
2021/06/07 08:02:24;0.00;0.00;0.62;0.00;0.00;0.62;8.20;7.60;;;25.80;35.20;;;;;;2269763;61;20495;-70
2021/06/07 08:05:10;0.00;0.00;0.62;0.00;0.00;0.62;8.00;7.30;;;25.80;35.20;;;;;;2269952;61;20382;-70
2021/06/07 08:07:55;0.00;0.00;0.62;0.00;0.00;0.62;8.17;7.37;;;25.90;35.30;;;;;;2270266;61;20480;-70
2021/06/07 08:10:40;0.00;0.00;0.62;0.00;0.00;0.62;8.30;7.50;;;25.90;35.30;;;;;;2270008;61;20391;-70
2021/06/07 08:13:25;0.00;0.00;0.62;0.00;0.00;0.62;8.10;7.37;;;25.90;35.30;;;;;;2269944;61;20743;-69
2021/06/07 08:16:10;0.00;0.00;0.62;0.00;0.00;0.62;8.43;7.73;;;25.90;35.20;;;;;;2270183;61;20368;-70
2021/06/07 08:18:55;0.00;0.00;0.62;0.00;0.00;0.62;7.87;7.17;;;25.90;35.20;;;;;;2269678;61;20433;-70
2021/06/07 08:21:39;0.00;0.00;0.62;0.00;0.00;0.62;8.53;7.73;;;26.00;35.20;;;;;;2269701;61;20638;-69
2021/06/07 08:24:24;0.00;0.00;0.62;0.00;0.00;0.62;8.13;7.43;;;26.00;35.20;;;;;;2270286;61;20356;-70
2021/06/07 08:27:09;0.00;0.00;0.62;0.00;0.00;0.62;7.80;7.20;;;26.00;35.20;;;;;;2269839;61;20415;-69
2021/06/07 08:29:53;0.00;0.00;0.62;0.00;0.00;0.62;8.37;7.57;;;26.00;35.20;;;;;;2270081;61;20450;-70
2021/06/07 08:32:40;0.00;0.00;0.62;0.00;0.00;0.62;8.63;7.80;;;26.00;35.20;;;;;;2270260;61;20384;-69
2021/06/07 08:35:25;0.00;0.00;0.62;0.00;0.00;0.62;9.13;8.40;;;26.00;35.20;;;;;;2270103;61;20364;-70
2021/06/07 08:38:10;0.00;0.00;0.62;0.00;0.00;0.62;8.07;7.37;;;26.00;35.20;;;;;;2270046;61;20398;-69
2021/06/07 08:40:55;0.00;0.00;0.62;0.00;0.00;0.62;8.30;7.60;;;26.00;35.10;;;;;;2269545;61;20751;-69
2021/06/07 08:43:39;0.00;0.00;0.62;0.00;0.00;0.62;8.87;8.13;;;26.10;35.20;;;;;;2270059;61;20363;-70
2021/06/07 08:46:24;0.00;0.00;0.62;0.00;0.00;0.62;8.60;7.90;;;26.10;35.20;;;;;;2270247;61;20511;-69
2021/06/07 08:49:10;0.00;0.00;0.62;0.00;0.00;0.62;8.70;8.00;;;26.10;35.20;;;;;;2269454;61;20728;-69
2021/06/07 08:51:54;0.00;0.00;0.62;0.00;0.00;0.62;8.97;8.20;;;26.10;35.10;;;;;;2269885;61;20379;-68
2021/06/07 08:54:39;0.00;0.00;0.62;0.00;0.00;0.62;8.33;7.53;;;26.10;35.80;;;;;;2270297;61;20486;-70
2021/06/07 08:57:25;0.00;0.00;0.62;0.00;0.00;0.62;9.20;8.50;;;26.10;35.10;;;;;;2270096;61;20586;-69
2021/06/07 09:00:13;0.00;0.00;0.62;0.00;0.00;0.62;8.77;7.97;;;26.10;35.10;;;;;;2269875;61;20407;-69
2021/06/07 09:03:01;0.00;0.00;0.62;0.00;0.00;0.62;8.70;7.93;;;26.10;35.10;;;;;;2269938;61;20376;-69
2021/06/07 09:05:52;0.00;0.00;0.62;0.00;0.00;0.62;8.57;7.87;;;26.10;35.10;;;;;;2270029;61;20364;-69
2021/06/07 09:08:39;0.00;0.00;0.62;0.00;0.00;0.62;8.80;8.00;;;26.10;35.10;;;;;;2270097;61;20364;-69
2021/06/07 09:11:23;0.00;0.00;0.62;0.00;0.00;0.62;9.93;9.03;;;26.20;35.10;;;;;;2269604;61;20410;-69
2021/06/07 09:14:21;0.00;0.00;0.62;0.00;0.00;0.62;8.37;7.60;;;26.20;35.10;;;;;;2269560;61;20371;-69
2021/06/07 09:17:17;0.00;0.00;0.62;0.00;0.00;0.62;8.50;7.80;;;26.20;35.10;;;;;;2269963;61;20372;-69
2021/06/07 09:20:12;0.00;0.00;0.62;0.00;0.00;0.62;8.63;7.93;;;26.20;35.10;;;;;;2269922;61;20725;-68
2021/06/07 09:22:59;0.00;0.00;0.62;0.00;0.00;0.62;8.07;7.43;;;26.20;35.20;;;;;;2272174;61;20376;-70
2021/06/07 09:25:47;0.00;0.00;0.62;0.00;0.00;0.62;8.90;8.20;;;26.20;35.20;;;;;;2269992;61;20365;-69
2021/06/07 09:28:31;0.00;0.00;0.62;0.00;0.00;0.62;8.87;8.07;;;26.20;35.20;;;;;;2269920;61;20420;-69
2021/06/07 09:31:16;0.00;0.00;0.62;0.00;0.00;0.62;8.80;8.00;;;26.20;35.10;;;;;;2270023;61;20379;-69
2021/06/07 09:34:06;0.00;0.00;0.62;0.00;0.00;0.62;8.77;8.07;;;26.20;35.20;;;;;;2269443;61;20368;-70
2021/06/07 09:36:51;0.00;0.00;0.62;0.00;0.00;0.62;10.20;9.23;;;26.20;35.10;;;;;;2272199;61;20372;-69
2021/06/07 09:39:39;0.00;0.00;0.62;0.00;0.00;0.62;9.00;8.27;;;26.30;35.20;;;;;;2270222;61;20364;-70
2021/06/07 09:42:24;0.00;0.00;0.62;0.00;0.00;0.62;10.47;9.50;;;26.30;35.20;;;;;;2269662;61;20388;-70
2021/06/07 09:45:10;0.00;0.00;0.62;0.00;0.00;0.62;10.43;9.53;;;26.30;35.20;;;;;;2269953;61;20783;-70
2021/06/07 09:48:08;0.00;0.00;0.62;0.00;0.00;0.62;10.30;9.33;;;26.30;35.20;;;;;;2269492;61;20439;-70
2021/06/07 09:50:56;0.00;0.00;0.62;0.00;0.00;0.62;10.10;9.20;;;26.30;35.20;;;;;;2269610;61;20360;-69
2021/06/07 09:53:43;0.00;0.00;0.62;0.00;0.00;0.62;9.80;8.90;;;26.30;35.20;;;;;;2270158;61;20759;-69
2021/06/07 09:56:30;0.00;0.00;0.62;0.00;0.00;0.62;9.00;8.20;;;26.30;35.20;;;;;;2269682;61;20360;-69
2021/06/07 09:59:27;0.00;0.00;0.62;0.00;0.00;0.62;9.60;8.80;;;26.40;35.20;;;;;;2269912;61;20583;-70
2021/06/07 10:02:18;0.00;0.00;0.62;0.00;0.00;0.62;9.70;8.73;;;26.40;35.20;;;;;;2272079;61;20420;-70
2021/06/07 10:05:05;0.00;0.00;0.62;0.00;0.00;0.62;9.43;8.63;;;26.40;35.20;;;;;;2269755;61;20363;-69
2021/06/07 10:07:53;0.00;0.00;0.62;0.00;0.00;0.62;9.93;9.03;;;26.40;35.10;;;;;;2270106;61;20675;-70
2021/06/07 10:10:40;0.00;0.00;0.62;0.00;0.00;0.62;10.37;9.47;;;26.40;35.20;;;;;;2269366;61;20410;-68
2021/06/07 10:13:34;0.00;0.00;0.62;0.00;0.00;0.62;10.97;10.07;;;26.50;35.20;;;;;;2269743;61;20375;-69
2021/06/07 10:16:20;0.00;0.00;0.62;0.00;0.00;0.62;10.20;9.30;;;26.50;35.20;;;;;;2269934;61;20360;-69
2021/06/07 10:19:16;0.00;0.00;0.62;0.00;0.00;0.62;9.70;8.80;;;26.50;35.20;;;;;;2269700;61;20399;-70
2021/06/07 10:22:03;0.00;0.00;0.62;0.00;0.00;0.62;9.40;8.60;;;26.50;35.20;;;;;;2269640;61;20392;-69
2021/06/07 10:24:47;0.00;0.00;0.62;0.00;0.00;0.62;9.33;8.53;;;26.50;35.20;;;;;;2269882;61;20415;-70
2021/06/07 10:27:32;0.00;0.00;0.62;0.00;0.00;0.62;10.27;9.43;;;26.50;35.20;;;;;;2269521;61;20391;-69
2021/06/07 10:30:22;0.00;0.00;0.62;0.00;0.00;0.62;9.97;8.87;;;26.50;35.10;;;;;;2269957;61;20466;-69
2021/06/07 10:33:33;0.00;0.00;0.62;0.00;0.00;0.62;10.47;9.57;;;26.50;35.10;;;;;;2269467;61;20396;-70
2021/06/07 10:36:37;0.00;0.00;0.62;0.00;0.00;0.62;11.50;10.40;;;26.50;35.20;;;;;;2269669;61;20384;-69
2021/06/07 10:39:25;0.00;0.00;0.62;0.00;0.00;0.62;10.27;9.33;;;26.60;35.20;;;;;;2269776;61;20359;-69
2021/06/07 10:42:18;0.00;0.00;0.62;0.00;0.00;0.62;9.33;8.53;;;26.60;35.10;;;;;;2269425;61;20456;-69
2021/06/07 10:45:07;0.00;0.00;0.62;0.00;0.00;0.62;9.73;8.80;;;26.60;35.20;;;;;;2269972;61;20368;-70
2021/06/07 10:47:53;0.00;0.00;0.62;0.00;0.00;0.62;10.67;9.67;;;26.60;35.20;;;;;;2269431;61;20752;-69
2021/06/07 10:50:43;0.00;0.00;0.62;0.00;0.00;0.62;8.47;7.77;;;26.60;35.10;;;;;;2269559;61;20580;-70
2021/06/07 10:53:28;0.00;0.00;0.62;0.00;0.00;0.62;9.43;8.53;;;26.60;35.10;;;;;;2269695;61;20739;-70
2021/06/07 10:56:14;0.00;0.00;0.62;0.00;0.00;0.62;9.30;8.50;;;26.60;35.10;;;;;;2269723;61;20368;-70